Time;durP1;ratioP1;P1;durP2;ratioP2;P2;SDS_P1;SDS_P2;PMS_P1;PMS_P2;Temp;Humidity;BMP_temperature;BMP_pressure;BME280_temperature;BME280_humidity;BME280_pressure;Samples;Min_cycle;Max_cycle;Signal;HPM_P1;HPM_P2
2021/05/16 00:00:56;;;;;;;7.53;2.47;;;12.20;99.90;;;;;;2064374;28;20478;-68
2021/05/16 00:01:56;;;;;;;6.95;2.10;;;12.20;99.90;;;;;;2064347;28;20427;-68
2021/05/16 00:02:57;;;;;;;10.70;2.63;;;12.20;99.90;;;;;;2063569;28;20473;-68
2021/05/16 00:03:58;;;;;;;9.35;2.60;;;12.20;99.90;;;;;;2064402;28;20022;-68
2021/05/16 00:04:58;;;;;;;7.57;2.15;;;12.20;99.90;;;;;;2064347;28;20481;-68
2021/05/16 00:05:59;;;;;;;7.93;3.28;;;12.20;99.90;;;;;;2063841;28;20381;-68
2021/05/16 00:07:00;;;;;;;8.43;2.10;;;12.20;99.90;;;;;;2064441;28;20117;-67
2021/05/16 00:08:01;;;;;;;8.35;2.55;;;12.20;99.90;;;;;;2063794;28;20517;-67
2021/05/16 00:09:03;;;;;;;10.88;3.08;;;12.20;99.90;;;;;;2063827;28;21028;-68
2021/05/16 00:10:05;;;;;;;9.13;2.53;;;12.20;99.90;;;;;;2064341;28;20113;-68
2021/05/16 00:11:06;;;;;;;8.60;2.70;;;12.20;99.90;;;;;;2063695;28;20494;-68
2021/05/16 00:12:08;;;;;;;14.25;3.58;;;12.20;99.90;;;;;;2063939;28;20393;-68
2021/05/16 00:13:10;;;;;;;8.98;3.03;;;12.20;99.90;;;;;;2063894;28;20382;-68
2021/05/16 00:14:11;;;;;;;9.63;2.47;;;12.20;99.90;;;;;;2064077;28;20088;-68
2021/05/16 00:15:14;;;;;;;10.00;2.63;;;12.10;99.90;;;;;;2064225;28;20057;-68
2021/05/16 00:16:15;;;;;;;11.73;3.10;;;12.20;99.90;;;;;;2064306;28;20470;-68
2021/05/16 00:17:16;;;;;;;8.35;2.42;;;12.10;99.90;;;;;;2071529;28;20508;-68
2021/05/16 00:18:17;;;;;;;8.05;2.42;;;12.20;99.90;;;;;;2063553;28;20125;-68
2021/05/16 00:19:17;;;;;;;7.43;2.60;;;12.10;99.90;;;;;;2063712;28;20022;-68
2021/05/16 00:20:21;;;;;;;9.60;2.50;;;12.20;99.90;;;;;;2064303;28;20027;-68
2021/05/16 00:21:22;;;;;;;8.55;2.92;;;12.20;99.90;;;;;;2064221;28;20026;-68
2021/05/16 00:22:23;;;;;;;8.95;2.92;;;12.10;99.90;;;;;;2063877;28;20026;-68
2021/05/16 00:23:23;;;;;;;8.45;2.78;;;12.10;99.90;;;;;;2064336;28;20035;-68
2021/05/16 00:24:25;;;;;;;9.05;2.67;;;12.10;99.90;;;;;;2064159;28;20037;-68
2021/05/16 00:25:27;;;;;;;9.13;2.38;;;12.10;99.90;;;;;;2064123;28;20508;-68
2021/05/16 00:26:27;;;;;;;13.43;3.10;;;12.20;99.90;;;;;;2063579;28;20045;-68
2021/05/16 00:27:28;;;;;;;7.80;2.63;;;12.20;99.90;;;;;;2064154;28;20109;-71
2021/05/16 00:28:28;;;;;;;8.82;2.33;;;12.20;99.90;;;;;;2063850;28;20634;-68
2021/05/16 00:29:29;;;;;;;10.48;2.95;;;12.20;99.90;;;;;;2063957;28;20026;-68
2021/05/16 00:30:30;;;;;;;7.57;2.55;;;12.20;99.90;;;;;;2064007;28;20026;-68
2021/05/16 00:31:31;;;;;;;9.20;2.40;;;12.20;99.90;;;;;;2064242;28;20034;-68
2021/05/16 00:32:32;;;;;;;7.75;2.47;;;12.20;99.90;;;;;;2070807;28;20473;-68
2021/05/16 00:33:32;;;;;;;14.57;3.00;;;12.20;99.90;;;;;;2071573;28;20068;-68
2021/05/16 00:34:33;;;;;;;8.88;2.80;;;12.20;99.90;;;;;;2064186;28;20026;-68
2021/05/16 00:35:34;;;;;;;9.43;2.83;;;12.20;99.90;;;;;;2064403;28;20026;-68
2021/05/16 00:36:34;;;;;;;13.50;3.47;;;12.20;99.90;;;;;;2064278;28;20034;-68
2021/05/16 00:37:35;;;;;;;7.70;2.83;;;12.20;99.90;;;;;;2065567;28;20105;-68
2021/05/16 00:38:36;;;;;;;9.23;3.03;;;12.20;99.90;;;;;;2065311;28;20026;-68
2021/05/16 00:39:36;;;;;;;8.02;2.33;;;12.20;99.90;;;;;;2062521;28;20470;-67
2021/05/16 00:40:37;;;;;;;10.48;2.55;;;12.20;99.90;;;;;;2062177;28;20026;-67
2021/05/16 00:41:38;;;;;;;8.20;2.60;;;12.30;99.90;;;;;;2064040;28;20105;-68
2021/05/16 00:42:38;;;;;;;9.25;2.63;;;12.30;99.90;;;;;;2063673;28;20049;-68
2021/05/16 00:43:39;;;;;;;9.48;2.78;;;12.30;99.90;;;;;;2064147;28;20030;-67
2021/05/16 00:44:55;;;;;;;9.18;2.95;;;12.30;99.90;;;;;;2063479;28;20106;-67
2021/05/16 00:45:56;;;;;;;10.02;2.88;;;12.30;99.90;;;;;;2063258;28;20109;-67
2021/05/16 00:46:56;;;;;;;13.15;3.28;;;12.30;99.90;;;;;;2064248;28;20030;-67
2021/05/16 00:47:59;;;;;;;9.20;2.50;;;12.30;99.90;;;;;;2064227;28;20534;-67
2021/05/16 00:49:00;;;;;;;9.35;2.72;;;12.30;99.90;;;;;;2063690;28;20065;-67
2021/05/16 00:50:01;;;;;;;10.80;2.83;;;12.30;99.90;;;;;;2064160;28;20026;-67
2021/05/16 00:51:01;;;;;;;11.43;2.75;;;12.30;99.90;;;;;;2064036;28;20469;-67
2021/05/16 00:52:02;;;;;;;8.93;2.75;;;12.30;99.90;;;;;;2063913;28;20034;-67
2021/05/16 00:53:02;;;;;;;14.18;3.20;;;12.30;99.90;;;;;;2063093;28;20025;-67
2021/05/16 00:54:06;;;;;;;10.75;3.55;;;12.30;99.90;;;;;;2064114;28;20054;-67
2021/05/16 00:55:08;;;;;;;14.43;3.40;;;12.30;99.90;;;;;;2073600;28;20021;-67
2021/05/16 00:56:09;;;;;;;8.30;2.70;;;12.30;99.90;;;;;;2071306;28;20025;-67
2021/05/16 00:57:10;;;;;;;12.10;4.00;;;12.30;99.90;;;;;;2063730;28;20101;-67
2021/05/16 00:58:11;;;;;;;10.80;2.97;;;12.30;99.90;;;;;;2064242;28;20022;-68
2021/05/16 00:59:11;;;;;;;12.30;3.13;;;12.30;99.90;;;;;;2063824;28;20034;-68
2021/05/16 01:00:18;;;;;;;12.98;3.00;;;12.30;99.90;;;;;;2063676;28;20084;-68
2021/05/16 01:01:20;;;;;;;8.68;2.88;;;12.30;99.90;;;;;;2063324;28;20446;-68
2021/05/16 01:02:20;;;;;;;10.60;3.00;;;12.30;99.90;;;;;;2063720;28;20516;-68
2021/05/16 01:03:21;;;;;;;9.40;2.95;;;12.30;99.90;;;;;;2063644;28;20406;-67
2021/05/16 01:04:22;;;;;;;10.00;3.40;;;12.30;99.90;;;;;;2063791;28;20030;-67
2021/05/16 01:05:23;;;;;;;9.77;2.58;;;12.30;99.90;;;;;;2063802;28;20370;-67
2021/05/16 01:06:23;;;;;;;10.05;2.60;;;12.30;99.90;;;;;;2063965;28;20026;-67
2021/05/16 01:07:24;;;;;;;11.18;3.58;;;12.30;99.90;;;;;;2063794;28;20475;-68
2021/05/16 01:08:25;;;;;;;11.68;3.53;;;12.30;99.90;;;;;;2063190;28;20102;-67
2021/05/16 01:09:25;;;;;;;12.93;3.38;;;12.30;99.90;;;;;;2063742;28;20041;-68
2021/05/16 01:10:26;;;;;;;11.98;2.78;;;12.30;99.90;;;;;;2063801;28;20093;-68
2021/05/16 01:11:31;;;;;;;9.07;2.80;;;12.20;99.90;;;;;;2063801;28;20038;-67
2021/05/16 01:12:39;;;;;;;15.23;2.72;;;12.30;99.90;;;;;;2063213;28;20041;-68
2021/05/16 01:13:40;;;;;;;10.80;3.65;;;12.30;99.90;;;;;;2063706;28;20034;-68
2021/05/16 01:14:46;;;;;;;12.73;3.58;;;12.20;99.90;;;;;;2063704;28;20053;-69
2021/05/16 01:15:47;;;;;;;13.90;3.40;;;12.30;99.90;;;;;;2063983;28;20022;-68
2021/05/16 01:16:48;;;;;;;15.90;2.97;;;12.20;99.90;;;;;;2063114;28;20081;-68
2021/05/16 01:17:48;;;;;;;12.48;3.00;;;12.20;99.90;;;;;;2063646;28;20026;-67
2021/05/16 01:18:49;;;;;;;10.77;3.47;;;12.20;99.90;;;;;;2063782;28;20497;-67
2021/05/16 01:19:50;;;;;;;12.18;3.53;;;12.20;99.90;;;;;;2058930;28;20117;-67
2021/05/16 01:20:51;;;;;;;14.02;3.47;;;12.20;99.90;;;;;;2063610;28;20027;-67
2021/05/16 01:21:54;;;;;;;11.55;3.00;;;12.20;99.90;;;;;;2063502;28;20022;-67
2021/05/16 01:23:04;;;;;;;12.98;3.60;;;12.20;99.90;;;;;;2063656;28;20438;-68
2021/05/16 01:24:17;;;;;;;11.80;3.42;;;12.20;99.90;;;;;;2059875;28;20027;-68
2021/05/16 01:25:18;;;;;;;9.75;3.25;;;12.20;99.90;;;;;;2063174;28;20104;-68
2021/05/16 01:26:19;;;;;;;13.38;3.83;;;12.20;99.90;;;;;;2063683;28;20030;-68
2021/05/16 01:27:20;;;;;;;17.70;3.50;;;12.20;99.90;;;;;;2063902;28;20034;-68
2021/05/16 01:28:21;;;;;;;11.52;3.30;;;12.20;99.90;;;;;;2058789;28;20027;-68
2021/05/16 01:29:23;;;;;;;13.77;3.65;;;12.30;99.90;;;;;;2059946;28;20034;-68
2021/05/16 01:30:26;;;;;;;10.18;3.55;;;12.30;99.90;;;;;;2070887;28;20449;-68
2021/05/16 01:31:26;;;;;;;11.27;2.90;;;12.30;99.90;;;;;;2070818;28;20029;-67
2021/05/16 01:32:27;;;;;;;14.45;3.08;;;12.20;99.90;;;;;;2061692;28;22410;-68
2021/05/16 01:33:27;;;;;;;12.68;3.10;;;12.30;99.90;;;;;;2063157;28;20034;-67
2021/05/16 01:34:28;;;;;;;12.77;2.75;;;12.30;99.90;;;;;;2063379;28;20389;-68
2021/05/16 01:35:29;;;;;;;16.80;3.92;;;12.30;99.90;;;;;;2063535;28;20027;-68
2021/05/16 01:36:30;;;;;;;13.02;3.80;;;12.30;99.90;;;;;;2063575;28;20035;-68
2021/05/16 01:37:31;;;;;;;11.90;3.33;;;12.30;99.90;;;;;;2060135;28;20030;-68
2021/05/16 01:38:32;;;;;;;13.48;3.15;;;12.30;99.90;;;;;;2062851;28;20022;-68
2021/05/16 01:39:33;;;;;;;14.45;3.58;;;12.30;99.90;;;;;;2062760;28;20105;-68
2021/05/16 01:40:35;;;;;;;13.23;3.05;;;12.30;99.90;;;;;;2063142;28;20085;-68
2021/05/16 01:41:36;;;;;;;11.85;3.47;;;12.30;99.90;;;;;;2063548;28;20469;-68
2021/05/16 01:42:43;;;;;;;16.00;3.42;;;12.30;99.90;;;;;;2062715;28;20026;-68
2021/05/16 01:43:43;;;;;;;16.08;3.55;;;12.20;99.90;;;;;;2063361;28;20100;-67
2021/05/16 01:44:44;;;;;;;11.65;3.25;;;12.30;99.90;;;;;;2063343;28;20030;-68
2021/05/16 01:45:45;;;;;;;9.25;2.83;;;12.30;99.90;;;;;;2063587;28;20452;-68
2021/05/16 01:46:46;;;;;;;12.70;3.13;;;12.30;99.90;;;;;;2063508;28;20033;-68
2021/05/16 01:47:47;;;;;;;13.75;3.97;;;12.30;99.90;;;;;;2063619;28;20468;-67
2021/05/16 01:48:47;;;;;;;15.00;3.80;;;12.30;99.90;;;;;;2063287;28;20378;-67
2021/05/16 01:49:50;;;;;;;10.38;2.88;;;12.30;99.90;;;;;;2063394;28;20018;-67
2021/05/16 01:50:51;;;;;;;11.38;3.30;;;12.30;99.90;;;;;;2063743;28;20053;-67
2021/05/16 01:51:51;;;;;;;20.13;4.15;;;12.30;99.90;;;;;;2063501;28;20033;-67
2021/05/16 01:52:52;;;;;;;12.75;3.58;;;12.30;99.90;;;;;;2057118;28;20030;-67
2021/05/16 01:53:53;;;;;;;15.73;4.00;;;12.30;99.90;;;;;;2062419;28;20054;-67
2021/05/16 01:54:54;;;;;;;12.77;3.15;;;12.30;99.90;;;;;;2063391;28;20032;-68
2021/05/16 01:55:55;;;;;;;12.43;3.30;;;12.30;99.90;;;;;;2063450;28;20101;-67
2021/05/16 01:56:56;;;;;;;15.88;3.63;;;12.30;99.90;;;;;;2063235;28;20026;-67
2021/05/16 01:57:57;;;;;;;12.40;3.38;;;12.30;99.90;;;;;;2063566;28;20084;-68
2021/05/16 01:58:58;;;;;;;13.85;3.75;;;12.30;99.90;;;;;;2063568;28;20030;-68
2021/05/16 01:59:59;;;;;;;12.00;3.13;;;12.30;99.90;;;;;;2063574;28;20030;-68
2021/05/16 02:01:00;;;;;;;12.60;3.22;;;12.30;99.90;;;;;;2064190;28;20458;-68
2021/05/16 02:02:03;;;;;;;9.93;2.72;;;12.30;99.90;;;;;;2064748;28;20417;-68
2021/05/16 02:03:04;;;;;;;10.50;3.03;;;12.30;99.90;;;;;;2063982;28;20057;-68
2021/05/16 02:04:05;;;;;;;14.90;3.42;;;12.30;99.90;;;;;;2064972;28;20561;-68
2021/05/16 02:05:09;;;;;;;15.98;4.07;;;12.30;99.90;;;;;;2064867;28;20026;-68
2021/05/16 02:06:10;;;;;;;11.90;3.33;;;12.30;99.90;;;;;;2064081;28;20359;-68
2021/05/16 02:07:11;;;;;;;11.13;3.35;;;12.30;99.90;;;;;;2063088;28;20104;-68
2021/05/16 02:08:12;;;;;;;15.75;3.55;;;12.30;99.90;;;;;;2064755;28;20073;-68
2021/05/16 02:09:13;;;;;;;14.05;3.13;;;12.30;99.90;;;;;;2064760;28;20025;-68
2021/05/16 02:10:15;;;;;;;16.00;3.88;;;12.30;99.90;;;;;;2064859;28;20541;-68
2021/05/16 02:11:15;;;;;;;12.57;3.00;;;12.30;99.90;;;;;;2064584;28;20014;-68
2021/05/16 02:12:17;;;;;;;14.52;3.28;;;12.30;99.90;;;;;;2064114;28;20033;-68
2021/05/16 02:13:18;;;;;;;27.13;4.28;;;12.30;99.90;;;;;;2064777;28;20026;-68
2021/05/16 02:14:27;;;;;;;15.43;2.92;;;12.30;99.90;;;;;;2064766;28;20029;-68
2021/05/16 02:15:28;;;;;;;12.50;2.97;;;12.30;99.90;;;;;;2064998;28;20034;-68
2021/05/16 02:16:28;;;;;;;13.68;3.25;;;12.30;99.90;;;;;;2064441;28;20038;-68
2021/05/16 02:17:29;;;;;;;19.92;3.72;;;12.30;99.90;;;;;;2064761;28;20037;-68
2021/05/16 02:18:30;;;;;;;15.20;4.22;;;12.30;99.90;;;;;;2064826;28;20022;-68
2021/05/16 02:19:31;;;;;;;13.48;3.17;;;12.30;99.90;;;;;;2064889;28;20557;-68
2021/05/16 02:20:31;;;;;;;15.20;3.63;;;12.30;99.90;;;;;;2064077;28;20030;-68
2021/05/16 02:21:32;;;;;;;13.82;3.08;;;12.30;99.90;;;;;;2064618;28;20022;-68
2021/05/16 02:22:32;;;;;;;11.00;3.30;;;12.30;99.90;;;;;;2064221;28;20072;-68
2021/05/16 02:23:37;;;;;;;11.15;2.90;;;12.30;99.90;;;;;;2064795;28;20027;-68
2021/05/16 02:24:38;;;;;;;12.07;3.00;;;12.30;99.90;;;;;;2064570;28;20089;-68
2021/05/16 02:25:38;;;;;;;13.05;3.63;;;12.30;99.90;;;;;;2064705;28;20097;-67
2021/05/16 02:26:39;;;;;;;12.40;3.58;;;12.30;99.90;;;;;;2064751;28;20041;-67
2021/05/16 02:27:40;;;;;;;11.15;3.47;;;12.30;99.90;;;;;;2064588;28;20026;-68
2021/05/16 02:28:40;;;;;;;12.27;3.20;;;12.30;99.90;;;;;;2064618;28;20496;-68
2021/05/16 02:29:41;;;;;;;13.85;3.20;;;12.30;99.90;;;;;;2064845;28;20026;-68
2021/05/16 02:30:41;;;;;;;13.13;3.67;;;12.30;99.90;;;;;;2064604;28;20062;-68
2021/05/16 02:31:43;;;;;;;11.65;3.65;;;12.20;99.90;;;;;;2064752;28;20034;-68
2021/05/16 02:32:44;;;;;;;12.52;3.42;;;12.30;99.90;;;;;;2064186;28;20031;-68
2021/05/16 02:33:45;;;;;;;12.77;3.35;;;12.20;99.90;;;;;;2064046;28;20022;-68
2021/05/16 02:34:46;;;;;;;11.43;3.10;;;12.20;99.90;;;;;;2064660;28;20027;-68
2021/05/16 02:35:46;;;;;;;15.40;3.22;;;12.20;99.90;;;;;;2064345;28;20030;-68
2021/05/16 02:36:47;;;;;;;14.00;2.88;;;12.20;99.90;;;;;;2064581;28;20023;-68
2021/05/16 02:37:48;;;;;;;10.02;3.08;;;12.20;99.90;;;;;;2064625;28;20084;-68
2021/05/16 02:38:48;;;;;;;13.20;3.47;;;12.20;99.90;;;;;;2064527;28;20101;-68
2021/05/16 02:39:49;;;;;;;10.55;2.85;;;12.20;99.90;;;;;;2064888;28;21146;-68
2021/05/16 02:40:49;;;;;;;11.75;3.03;;;12.20;99.90;;;;;;2061931;28;20030;-68
2021/05/16 02:41:50;;;;;;;12.73;3.13;;;12.20;99.90;;;;;;2058686;28;20045;-68
2021/05/16 02:42:50;;;;;;;11.20;3.63;;;12.20;99.90;;;;;;2058314;28;20392;-68
2021/05/16 02:43:51;;;;;;;14.00;3.30;;;12.20;99.90;;;;;;2061770;28;20038;-68
2021/05/16 02:44:52;;;;;;;14.00;3.25;;;12.20;99.90;;;;;;2064139;28;20105;-68
2021/05/16 02:45:52;;;;;;;16.98;3.25;;;12.20;99.90;;;;;;2064713;28;20026;-68
2021/05/16 02:46:53;;;;;;;12.93;3.13;;;12.20;99.90;;;;;;2064488;28;20034;-68
2021/05/16 02:47:53;;;;;;;12.68;3.03;;;12.20;99.90;;;;;;2064529;28;20026;-68
2021/05/16 02:48:54;;;;;;;12.20;3.13;;;12.20;99.90;;;;;;2064333;28;20018;-68
2021/05/16 02:49:54;;;;;;;14.20;3.00;;;12.30;99.90;;;;;;2064750;28;20058;-68
2021/05/16 02:50:55;;;;;;;11.25;3.10;;;12.30;99.90;;;;;;2064683;28;20018;-68
2021/05/16 02:51:57;;;;;;;8.93;2.33;;;12.20;99.90;;;;;;2064631;28;20027;-68
2021/05/16 02:52:57;;;;;;;10.00;2.72;;;12.20;99.90;;;;;;2064206;28;20359;-68
2021/05/16 02:53:58;;;;;;;8.85;2.65;;;12.20;99.90;;;;;;2064497;28;20073;-68
2021/05/16 02:54:58;;;;;;;12.52;2.55;;;12.20;99.90;;;;;;2066297;28;20026;-68
2021/05/16 02:55:59;;;;;;;14.25;3.53;;;12.20;99.90;;;;;;2066149;28;20097;-68
2021/05/16 02:57:00;;;;;;;15.00;3.33;;;12.20;99.90;;;;;;2065594;28;20041;-68
2021/05/16 02:58:00;;;;;;;11.02;3.28;;;12.20;99.90;;;;;;2065985;28;20033;-68
2021/05/16 02:59:01;;;;;;;12.65;2.85;;;12.20;99.90;;;;;;2066498;28;20101;-68
2021/05/16 03:00:06;;;;;;;12.15;2.97;;;12.30;99.90;;;;;;2066269;28;20351;-68
2021/05/16 03:01:06;;;;;;;13.75;3.40;;;12.20;99.90;;;;;;2065634;28;20022;-68
2021/05/16 03:02:07;;;;;;;11.55;3.08;;;12.20;99.90;;;;;;2064224;28;20145;-68
2021/05/16 03:03:08;;;;;;;16.02;3.30;;;12.20;99.90;;;;;;2065020;28;20038;-68
2021/05/16 03:04:09;;;;;;;14.73;3.33;;;12.20;99.90;;;;;;2065299;28;20411;-68
2021/05/16 03:05:10;;;;;;;9.60;2.90;;;12.20;99.90;;;;;;2065368;28;20022;-68
2021/05/16 03:06:10;;;;;;;13.43;3.17;;;12.20;99.90;;;;;;2064962;28;20022;-68
2021/05/16 03:07:11;;;;;;;13.50;3.67;;;12.20;99.90;;;;;;2065660;28;20097;-68
2021/05/16 03:08:11;;;;;;;14.18;2.85;;;12.30;99.90;;;;;;2065227;28;20038;-68
2021/05/16 03:09:12;;;;;;;17.63;3.63;;;12.30;99.90;;;;;;2065433;28;20033;-68
2021/05/16 03:10:13;;;;;;;12.40;3.40;;;12.20;99.90;;;;;;2057398;28;20367;-68
2021/05/16 03:11:14;;;;;;;12.00;3.00;;;12.20;99.90;;;;;;2065129;28;20026;-68
2021/05/16 03:12:15;;;;;;;14.45;3.17;;;12.30;99.90;;;;;;2063432;28;20037;-68
2021/05/16 03:13:16;;;;;;;13.07;2.85;;;12.30;99.90;;;;;;2064714;28;20455;-68
2021/05/16 03:14:16;;;;;;;11.75;3.20;;;12.20;99.90;;;;;;2065059;28;20066;-68
2021/05/16 03:15:18;;;;;;;13.32;3.05;;;12.20;99.90;;;;;;2064972;28;20026;-68
2021/05/16 03:16:18;;;;;;;14.88;3.72;;;12.30;99.90;;;;;;2064676;28;20026;-68
2021/05/16 03:17:19;;;;;;;12.60;3.15;;;12.30;99.90;;;;;;2064887;28;20109;-68
2021/05/16 03:18:19;;;;;;;11.70;3.13;;;12.30;99.90;;;;;;2056813;28;20035;-68
2021/05/16 03:19:20;;;;;;;12.90;2.72;;;12.30;99.90;;;;;;2058477;28;20031;-68
2021/05/16 03:20:21;;;;;;;13.25;3.53;;;12.20;99.90;;;;;;2064283;28;20038;-68
2021/05/16 03:21:22;;;;;;;11.00;2.95;;;12.30;99.90;;;;;;2064855;28;20026;-68
2021/05/16 03:22:22;;;;;;;12.68;3.38;;;12.30;99.90;;;;;;2064258;28;20026;-68
2021/05/16 03:23:23;;;;;;;16.70;3.85;;;12.30;99.90;;;;;;2064919;28;20050;-68
2021/05/16 03:24:23;;;;;;;14.85;3.67;;;12.30;99.90;;;;;;2064095;28;20045;-68
2021/05/16 03:25:24;;;;;;;15.00;3.72;;;12.30;99.90;;;;;;2064954;28;20081;-68
2021/05/16 03:26:24;;;;;;;13.18;3.42;;;12.30;99.90;;;;;;2064687;28;20105;-68
2021/05/16 03:27:25;;;;;;;11.88;3.05;;;12.30;99.90;;;;;;2064466;28;20389;-68
2021/05/16 03:28:26;;;;;;;20.33;4.15;;;12.30;99.90;;;;;;2064647;28;20728;-68
2021/05/16 03:29:27;;;;;;;12.95;3.63;;;12.30;99.90;;;;;;2065034;28;20126;-68
2021/05/16 03:30:27;;;;;;;14.48;3.20;;;12.20;99.90;;;;;;2064477;28;20034;-68
2021/05/16 03:31:28;;;;;;;12.57;3.08;;;12.20;99.90;;;;;;2059288;28;20042;-68
2021/05/16 03:32:29;;;;;;;13.60;3.33;;;12.20;99.90;;;;;;2061700;28;20125;-68
2021/05/16 03:33:30;;;;;;;13.75;3.60;;;12.30;99.90;;;;;;2065055;28;20081;-68
2021/05/16 03:34:30;;;;;;;12.77;2.90;;;12.30;99.90;;;;;;2064486;28;20056;-68
2021/05/16 03:35:31;;;;;;;23.08;3.75;;;12.30;99.90;;;;;;2064532;28;20489;-68
2021/05/16 03:36:32;;;;;;;14.70;3.40;;;12.20;99.90;;;;;;2064576;28;20026;-68
2021/05/16 03:37:32;;;;;;;16.30;3.33;;;12.30;99.90;;;;;;2064643;28;20027;-68
2021/05/16 03:38:33;;;;;;;13.80;3.70;;;12.30;99.90;;;;;;2064182;28;20332;-68
2021/05/16 03:39:34;;;;;;;21.10;4.22;;;12.30;99.90;;;;;;2064471;28;20037;-68
2021/05/16 03:40:35;;;;;;;14.50;3.80;;;12.30;99.90;;;;;;2064249;28;20553;-67
2021/05/16 03:41:36;;;;;;;16.63;3.42;;;12.30;99.90;;;;;;2056597;28;20026;-68
2021/05/16 03:42:37;;;;;;;15.40;3.33;;;12.30;99.90;;;;;;2063656;28;20030;-68
2021/05/16 03:43:38;;;;;;;13.98;2.90;;;12.30;99.90;;;;;;2064451;28;20049;-68
2021/05/16 03:44:38;;;;;;;14.88;3.30;;;12.30;99.90;;;;;;2064778;28;20034;-68
2021/05/16 03:45:39;;;;;;;19.42;3.47;;;12.30;99.90;;;;;;2064394;28;20566;-68
2021/05/16 03:46:39;;;;;;;14.10;3.47;;;12.30;99.90;;;;;;2064512;28;20081;-68
2021/05/16 03:47:40;;;;;;;15.73;3.03;;;12.30;99.90;;;;;;2064586;28;20022;-68
2021/05/16 03:48:41;;;;;;;13.52;3.10;;;12.30;99.90;;;;;;2064669;28;20528;-68
2021/05/16 03:49:41;;;;;;;17.42;3.67;;;12.30;99.90;;;;;;2064586;28;20034;-68
2021/05/16 03:50:42;;;;;;;14.00;3.20;;;12.30;99.90;;;;;;2064439;28;20057;-67
2021/05/16 03:51:44;;;;;;;14.30;2.92;;;12.30;99.90;;;;;;2063804;28;20502;-68
2021/05/16 03:52:44;;;;;;;15.27;3.25;;;12.30;99.90;;;;;;2057029;28;20042;-68
2021/05/16 03:53:45;;;;;;;13.90;3.15;;;12.30;99.90;;;;;;2061941;28;20397;-68
2021/05/16 03:54:50;;;;;;;15.35;3.28;;;12.30;99.90;;;;;;2064416;28;20022;-68
2021/05/16 03:55:50;;;;;;;17.02;3.60;;;12.40;99.90;;;;;;2064488;28;20501;-68
2021/05/16 03:56:51;;;;;;;14.23;3.53;;;12.40;99.90;;;;;;2064745;28;20450;-68
2021/05/16 03:57:51;;;;;;;13.35;3.10;;;12.40;99.90;;;;;;2064544;28;20029;-68
2021/05/16 03:58:52;;;;;;;17.33;3.42;;;12.40;99.90;;;;;;2064644;28;20027;-68
2021/05/16 03:59:53;;;;;;;9.60;2.90;;;12.40;99.90;;;;;;2064479;28;20473;-68
2021/05/16 04:00:53;;;;;;;15.13;3.17;;;12.40;99.90;;;;;;2064735;28;20026;-68
2021/05/16 04:01:54;;;;;;;13.48;3.22;;;12.40;99.90;;;;;;2064140;28;20037;-68
2021/05/16 04:02:54;;;;;;;17.17;3.50;;;12.40;99.90;;;;;;2063932;28;20038;-68
2021/05/16 04:03:55;;;;;;;11.75;3.45;;;12.40;99.90;;;;;;2064479;28;20462;-68
2021/05/16 04:04:56;;;;;;;15.18;3.60;;;12.40;99.90;;;;;;2064470;28;20029;-68
2021/05/16 04:05:56;;;;;;;11.65;3.22;;;12.40;99.90;;;;;;2063112;28;20034;-68
2021/05/16 04:06:57;;;;;;;14.27;3.53;;;12.40;99.90;;;;;;2064487;28;20026;-68
2021/05/16 04:07:57;;;;;;;12.02;3.42;;;12.40;99.90;;;;;;2064516;28;20497;-68
2021/05/16 04:08:58;;;;;;;11.10;3.15;;;12.40;99.90;;;;;;2063754;28;20026;-68
2021/05/16 04:09:59;;;;;;;11.40;2.97;;;12.40;99.90;;;;;;2063855;28;20061;-68
2021/05/16 04:10:59;;;;;;;20.55;3.63;;;12.30;99.90;;;;;;2064647;28;20101;-67
2021/05/16 04:12:00;;;;;;;11.93;3.15;;;12.30;99.90;;;;;;2064441;28;20034;-67
2021/05/16 04:13:01;;;;;;;16.13;3.30;;;12.30;99.90;;;;;;2063864;28;20410;-68
2021/05/16 04:14:02;;;;;;;15.68;3.65;;;12.30;99.90;;;;;;2064327;28;20023;-68
2021/05/16 04:15:05;;;;;;;11.70;3.55;;;12.30;99.90;;;;;;2064505;28;20014;-68
2021/05/16 04:16:05;;;;;;;12.02;3.40;;;12.30;99.90;;;;;;2064371;28;20701;-68
2021/05/16 04:17:06;;;;;;;16.58;3.75;;;12.30;99.90;;;;;;2064716;28;20435;-68
2021/05/16 04:18:08;;;;;;;16.70;3.58;;;12.30;99.90;;;;;;2064376;28;20119;-68
2021/05/16 04:19:08;;;;;;;13.43;3.20;;;12.30;99.90;;;;;;2063872;28;20026;-68
2021/05/16 04:20:09;;;;;;;12.70;3.90;;;12.30;99.90;;;;;;2063581;28;20026;-68
2021/05/16 04:21:10;;;;;;;14.23;3.40;;;12.30;99.90;;;;;;2064255;28;20019;-68
2021/05/16 04:22:11;;;;;;;11.65;2.88;;;12.30;99.90;;;;;;2064263;28;20030;-68
2021/05/16 04:23:11;;;;;;;14.02;3.10;;;12.30;99.90;;;;;;2064208;28;20027;-68
2021/05/16 04:24:13;;;;;;;13.07;2.78;;;12.30;99.90;;;;;;2064495;28;20054;-68
2021/05/16 04:25:13;;;;;;;9.40;3.33;;;12.30;99.90;;;;;;2064145;28;20033;-68
2021/05/16 04:26:14;;;;;;;15.38;3.10;;;12.30;99.90;;;;;;2064320;28;20018;-68
2021/05/16 04:27:15;;;;;;;16.08;3.55;;;12.30;99.90;;;;;;2064119;28;20403;-68
2021/05/16 04:28:15;;;;;;;14.50;3.50;;;12.30;99.90;;;;;;2063661;28;20091;-68
2021/05/16 04:29:16;;;;;;;14.68;2.97;;;12.30;99.90;;;;;;2064408;28;20111;-68
2021/05/16 04:30:17;;;;;;;11.07;2.45;;;12.30;99.90;;;;;;2064272;28;20068;-68
2021/05/16 04:31:17;;;;;;;18.48;3.92;;;12.40;99.90;;;;;;2064245;28;20028;-68
2021/05/16 04:32:18;;;;;;;11.07;2.85;;;12.30;99.90;;;;;;2063490;28;20038;-68
2021/05/16 04:33:19;;;;;;;13.55;3.30;;;12.40;99.90;;;;;;2063799;28;20056;-68
2021/05/16 04:34:19;;;;;;;10.32;2.97;;;12.40;99.90;;;;;;2063179;28;20032;-68
2021/05/16 04:35:20;;;;;;;13.25;3.28;;;12.40;99.90;;;;;;2064193;28;20026;-68
2021/05/16 04:36:20;;;;;;;12.40;2.92;;;12.50;99.90;;;;;;2064160;28;20046;-68
2021/05/16 04:37:21;;;;;;;12.32;2.70;;;12.50;99.90;;;;;;2071341;28;20022;-68
2021/05/16 04:38:21;;;;;;;10.63;2.92;;;12.50;99.90;;;;;;2072013;28;20030;-68
2021/05/16 04:39:22;;;;;;;11.93;3.30;;;12.50;99.90;;;;;;2063384;28;20080;-68
2021/05/16 04:40:23;;;;;;;14.10;3.25;;;12.50;99.90;;;;;;2063717;28;20426;-69
2021/05/16 04:41:23;;;;;;;10.77;2.88;;;12.50;99.90;;;;;;2057252;28;20046;-68
2021/05/16 04:42:24;;;;;;;12.70;3.38;;;12.50;99.90;;;;;;2060244;28;20488;-68
2021/05/16 04:43:24;;;;;;;12.43;3.08;;;12.50;99.90;;;;;;2064478;28;20037;-68
2021/05/16 04:44:25;;;;;;;18.00;4.25;;;12.50;99.90;;;;;;2064149;28;20026;-68
2021/05/16 04:45:25;;;;;;;11.82;2.72;;;12.50;99.90;;;;;;2064399;28;20022;-68
2021/05/16 04:46:27;;;;;;;13.15;3.72;;;12.50;99.90;;;;;;2064181;28;20735;-68
2021/05/16 04:47:27;;;;;;;12.23;3.08;;;12.50;99.90;;;;;;2062671;28;20498;-68
2021/05/16 04:48:28;;;;;;;11.05;2.83;;;12.50;99.90;;;;;;2063514;28;20533;-68
2021/05/16 04:49:28;;;;;;;12.13;2.88;;;12.50;99.90;;;;;;2064472;28;20543;-68
2021/05/16 04:50:29;;;;;;;10.20;3.00;;;12.50;99.90;;;;;;2064028;28;20030;-68
2021/05/16 04:51:30;;;;;;;9.60;2.85;;;12.50;99.90;;;;;;2064089;28;20105;-68
2021/05/16 04:52:30;;;;;;;15.00;2.85;;;12.60;99.90;;;;;;2063389;28;20081;-68
2021/05/16 04:53:33;;;;;;;7.80;2.95;;;12.70;99.90;;;;;;2064312;28;20094;-68
2021/05/16 04:54:34;;;;;;;8.98;2.58;;;12.70;99.90;;;;;;2063884;28;20550;-68
2021/05/16 04:55:35;;;;;;;11.48;3.25;;;12.80;99.90;;;;;;2064270;28;20374;-68
2021/05/16 04:56:35;;;;;;;12.30;3.00;;;12.80;99.90;;;;;;2064071;28;20031;-68
2021/05/16 04:57:36;;;;;;;15.20;2.97;;;12.80;99.90;;;;;;2064171;28;20023;-68
2021/05/16 04:58:37;;;;;;;9.65;2.90;;;12.80;99.90;;;;;;2063639;28;20030;-68
2021/05/16 04:59:37;;;;;;;11.82;3.17;;;12.90;99.90;;;;;;2064270;28;20449;-68
2021/05/16 05:00:38;;;;;;;10.52;3.30;;;12.90;99.90;;;;;;2064077;28;20026;-68
2021/05/16 05:01:38;;;;;;;14.20;3.15;;;13.00;99.90;;;;;;2063528;28;20117;-68
2021/05/16 05:02:41;;;;;;;10.40;2.88;;;13.00;99.90;;;;;;2063436;28;20026;-68
2021/05/16 05:03:42;;;;;;;11.85;3.05;;;13.10;99.90;;;;;;2063736;28;20072;-68
2021/05/16 05:04:43;;;;;;;9.20;3.08;;;13.10;99.90;;;;;;2063825;28;20035;-68
2021/05/16 05:05:43;;;;;;;11.73;3.08;;;13.20;99.90;;;;;;2064225;28;20022;-68
2021/05/16 05:06:44;;;;;;;12.20;2.92;;;13.20;99.90;;;;;;2062829;28;20120;-68
2021/05/16 05:07:45;;;;;;;14.18;3.38;;;13.30;99.90;;;;;;2063643;28;20045;-68
2021/05/16 05:08:45;;;;;;;11.70;2.90;;;13.40;99.90;;;;;;2063857;28;20031;-68
2021/05/16 05:09:46;;;;;;;12.73;3.17;;;13.40;99.90;;;;;;2064054;28;20026;-68
2021/05/16 05:10:47;;;;;;;14.02;3.35;;;13.40;99.90;;;;;;2063842;28;20065;-68
2021/05/16 05:11:48;;;;;;;10.80;3.10;;;13.40;99.90;;;;;;2064139;28;20038;-68
2021/05/16 05:12:48;;;;;;;9.10;2.90;;;13.40;99.90;;;;;;2063422;28;20058;-68
2021/05/16 05:13:49;;;;;;;10.27;2.88;;;13.40;99.90;;;;;;2064285;28;21057;-68
2021/05/16 05:14:49;;;;;;;10.93;2.85;;;13.40;99.90;;;;;;2063072;28;20049;-68